sensor_id;sensor_type;location;lat;lon;timestamp;temperature;humidity
43049;DHT22;28673;44.412;11.918;2023-05-10T00:01:40;17.20;99.90
43049;DHT22;28673;44.412;11.918;2023-05-10T00:04:06;17.10;99.90
43049;DHT22;28673;44.412;11.918;2023-05-10T00:06:32;17.10;99.90
43049;DHT22;28673;44.412;11.918;2023-05-10T00:08:58;17.10;99.90
43049;DHT22;28673;44.412;11.918;2023-05-10T00:11:24;17.10;99.90
43049;DHT22;28673;44.412;11.918;2023-05-10T00:13:50;17.10;99.90
43049;DHT22;28673;44.412;11.918;2023-05-10T00:19:00;17.10;99.90
43049;DHT22;28673;44.412;11.918;2023-05-10T00:21:26;17.00;99.90
43049;DHT22;28673;44.412;11.918;2023-05-10T00:23:53;17.00;99.90
43049;DHT22;28673;44.412;11.918;2023-05-10T00:26:19;17.00;99.90
43049;DHT22;28673;44.412;11.918;2023-05-10T00:29:09;17.00;99.90
43049;DHT22;28673;44.412;11.918;2023-05-10T00:31:35;17.00;99.90
43049;DHT22;28673;44.412;11.918;2023-05-10T00:34:01;17.00;99.90
43049;DHT22;28673;44.412;11.918;2023-05-10T00:36:45;17.00;99.90
43049;DHT22;28673;44.412;11.918;2023-05-10T00:41:56;17.00;99.90
43049;DHT22;28673;44.412;11.918;2023-05-10T00:44:22;16.90;99.90
43049;DHT22;28673;44.412;11.918;2023-05-10T00:47:06;16.90;99.90
43049;DHT22;28673;44.412;11.918;2023-05-10T00:49:33;16.90;99.90
43049;DHT22;28673;44.412;11.918;2023-05-10T00:52:19;16.90;99.90
43049;DHT22;28673;44.412;11.918;2023-05-10T00:54:44;16.90;99.90
43049;DHT22;28673;44.412;11.918;2023-05-10T00:57:11;16.90;99.90
43049;DHT22;28673;44.412;11.918;2023-05-10T00:59:37;16.90;99.90
43049;DHT22;28673;44.412;11.918;2023-05-10T01:02:21;16.90;99.90
43049;DHT22;28673;44.412;11.918;2023-05-10T01:04:47;16.90;99.90
43049;DHT22;28673;44.412;11.918;2023-05-10T01:13:04;16.80;99.90
43049;DHT22;28673;44.412;11.918;2023-05-10T01:15:31;16.90;99.90
43049;DHT22;28673;44.412;11.918;2023-05-10T01:18:18;16.90;99.90
43049;DHT22;28673;44.412;11.918;2023-05-10T01:20:48;16.80;99.90
43049;DHT22;28673;44.412;11.918;2023-05-10T01:23:56;16.90;99.90
43049;DHT22;28673;44.412;11.918;2023-05-10T01:27:15;16.80;99.90
43049;DHT22;28673;44.412;11.918;2023-05-10T01:30:10;16.80;99.90
43049;DHT22;28673;44.412;11.918;2023-05-10T01:33:24;16.80;99.90
43049;DHT22;28673;44.412;11.918;2023-05-10T01:39:14;16.80;99.90
43049;DHT22;28673;44.412;11.918;2023-05-10T01:42:20;16.80;99.90
43049;DHT22;28673;44.412;11.918;2023-05-10T01:47:40;16.70;99.90
43049;DHT22;28673;44.412;11.918;2023-05-10T01:50:27;16.70;99.90
43049;DHT22;28673;44.412;11.918;2023-05-10T01:52:57;16.70;99.90
43049;DHT22;28673;44.412;11.918;2023-05-10T01:55:27;16.60;99.90
43049;DHT22;28673;44.412;11.918;2023-05-10T01:58:13;16.60;99.90
43049;DHT22;28673;44.412;11.918;2023-05-10T02:00:43;16.60;99.90
43049;DHT22;28673;44.412;11.918;2023-05-10T02:03:11;16.60;99.90
43049;DHT22;28673;44.412;11.918;2023-05-10T02:06:16;16.50;99.90
43049;DHT22;28673;44.412;11.918;2023-05-10T02:08:44;16.50;99.90
43049;DHT22;28673;44.412;11.918;2023-05-10T02:11:13;16.50;99.90
43049;DHT22;28673;44.412;11.918;2023-05-10T02:13:39;16.50;99.90
43049;DHT22;28673;44.412;11.918;2023-05-10T02:16:07;16.50;99.90
43049;DHT22;28673;44.412;11.918;2023-05-10T02:18:34;16.50;99.90
43049;DHT22;28673;44.412;11.918;2023-05-10T02:21:04;16.40;99.90
43049;DHT22;28673;44.412;11.918;2023-05-10T02:23:31;16.40;99.90
43049;DHT22;28673;44.412;11.918;2023-05-10T02:25:58;16.40;99.90
43049;DHT22;28673;44.412;11.918;2023-05-10T02:28:26;16.40;99.90
43049;DHT22;28673;44.412;11.918;2023-05-10T02:30:53;16.40;99.90
43049;DHT22;28673;44.412;11.918;2023-05-10T02:33:20;16.30;99.90
43049;DHT22;28673;44.412;11.918;2023-05-10T02:35:47;16.30;99.90
43049;DHT22;28673;44.412;11.918;2023-05-10T02:38:14;16.30;99.90
43049;DHT22;28673;44.412;11.918;2023-05-10T02:40:41;16.30;99.90
43049;DHT22;28673;44.412;11.918;2023-05-10T02:43:13;16.30;99.90
43049;DHT22;28673;44.412;11.918;2023-05-10T02:45:40;16.20;99.90
43049;DHT22;28673;44.412;11.918;2023-05-10T02:48:08;16.20;99.90
43049;DHT22;28673;44.412;11.918;2023-05-10T02:50:35;16.10;99.90
43049;DHT22;28673;44.412;11.918;2023-05-10T02:53:11;16.10;99.90
43049;DHT22;28673;44.412;11.918;2023-05-10T02:55:40;16.10;99.90
43049;DHT22;28673;44.412;11.918;2023-05-10T02:58:09;16.10;99.90
43049;DHT22;28673;44.412;11.918;2023-05-10T03:00:35;16.10;99.90
43049;DHT22;28673;44.412;11.918;2023-05-10T03:03:02;16.00;99.90
43049;DHT22;28673;44.412;11.918;2023-05-10T03:05:28;16.00;99.90
43049;DHT22;28673;44.412;11.918;2023-05-10T03:07:55;16.00;99.90
43049;DHT22;28673;44.412;11.918;2023-05-10T03:10:26;15.90;99.90
43049;DHT22;28673;44.412;11.918;2023-05-10T03:15:56;15.90;99.90
43049;DHT22;28673;44.412;11.918;2023-05-10T03:18:29;15.90;99.90
43049;DHT22;28673;44.412;11.918;2023-05-10T03:21:03;15.90;99.90
43049;DHT22;28673;44.412;11.918;2023-05-10T03:26:08;15.90;99.90
43049;DHT22;28673;44.412;11.918;2023-05-10T03:28:35;15.90;99.90
43049;DHT22;28673;44.412;11.918;2023-05-10T03:31:04;15.90;99.90
43049;DHT22;28673;44.412;11.918;2023-05-10T03:33:32;15.80;99.90
43049;DHT22;28673;44.412;11.918;2023-05-10T03:35:59;15.80;99.90
43049;DHT22;28673;44.412;11.918;2023-05-10T03:38:25;15.80;99.90
43049;DHT22;28673;44.412;11.918;2023-05-10T03:40:51;15.80;99.90
43049;DHT22;28673;44.412;11.918;2023-05-10T03:43:17;15.80;99.90
43049;DHT22;28673;44.412;11.918;2023-05-10T03:45:43;15.80;99.90
43049;DHT22;28673;44.412;11.918;2023-05-10T03:48:09;15.80;99.90
43049;DHT22;28673;44.412;11.918;2023-05-10T03:50:35;15.80;99.90
43049;DHT22;28673;44.412;11.918;2023-05-10T03:53:01;15.80;99.90
43049;DHT22;28673;44.412;11.918;2023-05-10T03:55:28;15.80;99.90
43049;DHT22;28673;44.412;11.918;2023-05-10T03:57:55;15.80;99.90
43049;DHT22;28673;44.412;11.918;2023-05-10T04:00:25;15.90;99.90
43049;DHT22;28673;44.412;11.918;2023-05-10T04:02:54;15.80;99.90
43049;DHT22;28673;44.412;11.918;2023-05-10T04:05:20;15.80;99.90
43049;DHT22;28673;44.412;11.918;2023-05-10T04:07:49;15.80;99.90
43049;DHT22;28673;44.412;11.918;2023-05-10T04:10:18;15.80;99.90
43049;DHT22;28673;44.412;11.918;2023-05-10T04:12:44;15.80;99.90
43049;DHT22;28673;44.412;11.918;2023-05-10T04:15:10;15.90;99.90
43049;DHT22;28673;44.412;11.918;2023-05-10T04:17:36;15.80;99.90
43049;DHT22;28673;44.412;11.918;2023-05-10T04:20:06;15.80;99.90
43049;DHT22;28673;44.412;11.918;2023-05-10T04:22:32;15.90;99.90
43049;DHT22;28673;44.412;11.918;2023-05-10T04:24:58;15.90;99.90
43049;DHT22;28673;44.412;11.918;2023-05-10T04:27:25;15.90;99.90
43049;DHT22;28673;44.412;11.918;2023-05-10T04:29:53;15.90;99.90
43049;DHT22;28673;44.412;11.918;2023-05-10T04:32:25;15.90;99.90
43049;DHT22;28673;44.412;11.918;2023-05-10T04:34:54;15.90;99.90
43049;DHT22;28673;44.412;11.918;2023-05-10T04:37:22;15.90;99.90
43049;DHT22;28673;44.412;11.918;2023-05-10T04:39:48;15.90;99.90
43049;DHT22;28673;44.412;11.918;2023-05-10T04:42:14;15.90;99.90
43049;DHT22;28673;44.412;11.918;2023-05-10T04:44:41;15.90;99.90
43049;DHT22;28673;44.412;11.918;2023-05-10T04:47:07;15.90;99.90
43049;DHT22;28673;44.412;11.918;2023-05-10T04:49:32;15.90;99.90
43049;DHT22;28673;44.412;11.918;2023-05-10T04:52:10;15.90;99.90
43049;DHT22;28673;44.412;11.918;2023-05-10T04:54:46;15.90;99.90
43049;DHT22;28673;44.412;11.918;2023-05-10T04:57:14;15.90;99.90
43049;DHT22;28673;44.412;11.918;2023-05-10T04:59:43;15.90;99.90
43049;DHT22;28673;44.412;11.918;2023-05-10T05:02:10;15.90;99.90
43049;DHT22;28673;44.412;11.918;2023-05-10T05:04:36;15.90;99.90
43049;DHT22;28673;44.412;11.918;2023-05-10T05:07:02;15.90;99.90
43049;DHT22;28673;44.412;11.918;2023-05-10T05:09:30;15.90;99.90
43049;DHT22;28673;44.412;11.918;2023-05-10T05:11:58;15.90;99.90
43049;DHT22;28673;44.412;11.918;2023-05-10T05:14:25;15.80;99.90
43049;DHT22;28673;44.412;11.918;2023-05-10T05:16:51;15.90;99.90
43049;DHT22;28673;44.412;11.918;2023-05-10T05:19:24;15.80;99.90
43049;DHT22;28673;44.412;11.918;2023-05-10T05:21:50;15.80;99.90
43049;DHT22;28673;44.412;11.918;2023-05-10T05:24:16;15.80;99.90
43049;DHT22;28673;44.412;11.918;2023-05-10T05:26:42;15.70;99.90
43049;DHT22;28673;44.412;11.918;2023-05-10T05:29:10;15.80;99.90
43049;DHT22;28673;44.412;11.918;2023-05-10T05:31:36;15.70;99.90
43049;DHT22;28673;44.412;11.918;2023-05-10T05:34:02;15.70;99.90
43049;DHT22;28673;44.412;11.918;2023-05-10T05:36:28;15.80;99.90
43049;DHT22;28673;44.412;11.918;2023-05-10T05:38:57;15.70;99.90
43049;DHT22;28673;44.412;11.918;2023-05-10T05:41:23;15.80;99.90
43049;DHT22;28673;44.412;11.918;2023-05-10T05:43:50;15.70;99.90
43049;DHT22;28673;44.412;11.918;2023-05-10T05:46:16;15.70;99.90
43049;DHT22;28673;44.412;11.918;2023-05-10T05:48:41;15.70;99.90
43049;DHT22;28673;44.412;11.918;2023-05-10T05:51:07;15.70;99.90
43049;DHT22;28673;44.412;11.918;2023-05-10T05:53:38;15.60;99.90
43049;DHT22;28673;44.412;11.918;2023-05-10T05:56:04;15.60;99.90
43049;DHT22;28673;44.412;11.918;2023-05-10T05:58:48;15.60;99.90
43049;DHT22;28673;44.412;11.918;2023-05-10T06:01:15;15.60;99.90
43049;DHT22;28673;44.412;11.918;2023-05-10T06:03:41;15.60;99.90
43049;DHT22;28673;44.412;11.918;2023-05-10T06:06:07;15.60;99.90
43049;DHT22;28673;44.412;11.918;2023-05-10T06:08:33;15.60;99.90
43049;DHT22;28673;44.412;11.918;2023-05-10T06:11:00;15.60;99.90
43049;DHT22;28673;44.412;11.918;2023-05-10T06:13:26;15.60;99.90
43049;DHT22;28673;44.412;11.918;2023-05-10T06:15:58;15.60;99.90
43049;DHT22;28673;44.412;11.918;2023-05-10T06:18:27;15.60;99.90
43049;DHT22;28673;44.412;11.918;2023-05-10T06:20:54;15.60;99.90
43049;DHT22;28673;44.412;11.918;2023-05-10T06:23:20;15.70;99.90
43049;DHT22;28673;44.412;11.918;2023-05-10T06:25:47;15.60;99.90
43049;DHT22;28673;44.412;11.918;2023-05-10T06:28:13;15.70;99.90
43049;DHT22;28673;44.412;11.918;2023-05-10T06:30:39;15.70;99.90
43049;DHT22;28673;44.412;11.918;2023-05-10T06:33:05;15.70;99.90
43049;DHT22;28673;44.412;11.918;2023-05-10T06:35:33;15.80;99.90
43049;DHT22;28673;44.412;11.918;2023-05-10T06:37:59;15.80;99.90
43049;DHT22;28673;44.412;11.918;2023-05-10T06:40:25;15.70;99.90
43049;DHT22;28673;44.412;11.918;2023-05-10T06:42:51;15.70;99.90
43049;DHT22;28673;44.412;11.918;2023-05-10T06:45:17;15.80;99.90
43049;DHT22;28673;44.412;11.918;2023-05-10T06:47:43;15.80;99.90
43049;DHT22;28673;44.412;11.918;2023-05-10T06:50:12;15.90;99.90
43049;DHT22;28673;44.412;11.918;2023-05-10T06:52:40;15.90;99.90
43049;DHT22;28673;44.412;11.918;2023-05-10T06:55:07;15.90;99.90
43049;DHT22;28673;44.412;11.918;2023-05-10T06:57:34;15.90;99.90
43049;DHT22;28673;44.412;11.918;2023-05-10T07:00:00;16.00;99.90
43049;DHT22;28673;44.412;11.918;2023-05-10T07:02:26;16.00;99.90
43049;DHT22;28673;44.412;11.918;2023-05-10T07:05:01;16.00;99.90
43049;DHT22;28673;44.412;11.918;2023-05-10T07:07:30;16.00;99.90
43049;DHT22;28673;44.412;11.918;2023-05-10T07:09:59;16.00;99.90
43049;DHT22;28673;44.412;11.918;2023-05-10T07:12:26;16.10;99.90
43049;DHT22;28673;44.412;11.918;2023-05-10T07:14:52;16.00;99.90
43049;DHT22;28673;44.412;11.918;2023-05-10T07:17:18;16.00;99.90
43049;DHT22;28673;44.412;11.918;2023-05-10T07:19:44;16.10;99.90
43049;DHT22;28673;44.412;11.918;2023-05-10T07:22:10;16.00;99.90
43049;DHT22;28673;44.412;11.918;2023-05-10T07:24:37;16.00;99.90
43049;DHT22;28673;44.412;11.918;2023-05-10T07:27:03;16.00;99.90
43049;DHT22;28673;44.412;11.918;2023-05-10T07:29:32;16.00;99.90
43049;DHT22;28673;44.412;11.918;2023-05-10T07:31:58;16.00;99.90
43049;DHT22;28673;44.412;11.918;2023-05-10T07:34:24;15.90;99.90
43049;DHT22;28673;44.412;11.918;2023-05-10T07:36:53;15.90;99.90
43049;DHT22;28673;44.412;11.918;2023-05-10T07:39:19;15.80;99.90
43049;DHT22;28673;44.412;11.918;2023-05-10T07:41:49;15.80;99.90
43049;DHT22;28673;44.412;11.918;2023-05-10T07:44:23;15.80;99.90
43049;DHT22;28673;44.412;11.918;2023-05-10T07:46:59;15.90;99.90
43049;DHT22;28673;44.412;11.918;2023-05-10T07:49:25;15.80;99.90
43049;DHT22;28673;44.412;11.918;2023-05-10T07:51:54;15.80;99.90
43049;DHT22;28673;44.412;11.918;2023-05-10T07:54:20;15.80;99.90
43049;DHT22;28673;44.412;11.918;2023-05-10T07:56:46;15.80;99.90
43049;DHT22;28673;44.412;11.918;2023-05-10T07:59:17;15.80;99.90
43049;DHT22;28673;44.412;11.918;2023-05-10T08:01:49;15.80;99.90
43049;DHT22;28673;44.412;11.918;2023-05-10T08:04:24;15.80;99.90
43049;DHT22;28673;44.412;11.918;2023-05-10T08:06:51;15.80;99.90
43049;DHT22;28673;44.412;11.918;2023-05-10T08:09:17;15.80;99.90
43049;DHT22;28673;44.412;11.918;2023-05-10T08:11:43;15.80;99.90
43049;DHT22;28673;44.412;11.918;2023-05-10T08:14:14;15.90;99.90
43049;DHT22;28673;44.412;11.918;2023-05-10T08:16:40;15.90;99.90
43049;DHT22;28673;44.412;11.918;2023-05-10T08:19:09;15.80;99.90
43049;DHT22;28673;44.412;11.918;2023-05-10T08:21:35;15.90;99.90
43049;DHT22;28673;44.412;11.918;2023-05-10T08:24:02;15.90;99.90
43049;DHT22;28673;44.412;11.918;2023-05-10T08:26:32;15.90;99.90
43049;DHT22;28673;44.412;11.918;2023-05-10T08:29:11;15.80;99.90
43049;DHT22;28673;44.412;11.918;2023-05-10T08:31:37;15.90;99.90
43049;DHT22;28673;44.412;11.918;2023-05-10T08:34:02;15.90;99.90
43049;DHT22;28673;44.412;11.918;2023-05-10T08:36:28;16.00;99.90
43049;DHT22;28673;44.412;11.918;2023-05-10T08:38:54;16.00;99.90
43049;DHT22;28673;44.412;11.918;2023-05-10T08:41:20;16.00;99.90
43049;DHT22;28673;44.412;11.918;2023-05-10T08:43:47;16.00;99.90
43049;DHT22;28673;44.412;11.918;2023-05-10T08:46:17;16.00;99.90
43049;DHT22;28673;44.412;11.918;2023-05-10T08:48:47;16.00;99.90
43049;DHT22;28673;44.412;11.918;2023-05-10T08:51:18;16.00;99.90
43049;DHT22;28673;44.412;11.918;2023-05-10T08:53:45;16.00;99.90
43049;DHT22;28673;44.412;11.918;2023-05-10T08:56:11;16.00;99.90
43049;DHT22;28673;44.412;11.918;2023-05-10T08:58:38;16.10;99.90
43049;DHT22;28673;44.412;11.918;2023-05-10T09:01:05;16.10;99.90
43049;DHT22;28673;44.412;11.918;2023-05-10T09:03:31;16.10;99.90
43049;DHT22;28673;44.412;11.918;2023-05-10T09:05:57;16.10;99.90
43049;DHT22;28673;44.412;11.918;2023-05-10T09:08:23;16.10;99.90
43049;DHT22;28673;44.412;11.918;2023-05-10T09:10:56;16.10;99.90
43049;DHT22;28673;44.412;11.918;2023-05-10T09:13:23;16.10;99.90
43049;DHT22;28673;44.412;11.918;2023-05-10T09:15:51;16.00;99.90
43049;DHT22;28673;44.412;11.918;2023-05-10T09:18:17;16.00;99.90
43049;DHT22;28673;44.412;11.918;2023-05-10T09:20:43;16.10;99.90
43049;DHT22;28673;44.412;11.918;2023-05-10T09:23:09;16.10;99.90
43049;DHT22;28673;44.412;11.918;2023-05-10T09:25:35;16.10;99.90
43049;DHT22;28673;44.412;11.918;2023-05-10T09:28:01;16.10;99.90
43049;DHT22;28673;44.412;11.918;2023-05-10T09:30:29;16.10;99.90
43049;DHT22;28673;44.412;11.918;2023-05-10T09:32:56;16.00;99.90
43049;DHT22;28673;44.412;11.918;2023-05-10T09:35:26;16.00;99.90
43049;DHT22;28673;44.412;11.918;2023-05-10T09:37:54;16.00;99.90
43049;DHT22;28673;44.412;11.918;2023-05-10T09:40:22;16.00;99.90
43049;DHT22;28673;44.412;11.918;2023-05-10T09:45:25;16.00;99.90
43049;DHT22;28673;44.412;11.918;2023-05-10T09:47:52;15.90;99.90
43049;DHT22;28673;44.412;11.918;2023-05-10T09:50:19;15.90;99.90
43049;DHT22;28673;44.412;11.918;2023-05-10T09:55:25;16.00;99.90
43049;DHT22;28673;44.412;11.918;2023-05-10T09:58:01;16.10;99.90
43049;DHT22;28673;44.412;11.918;2023-05-10T10:00:28;16.10;99.90
43049;DHT22;28673;44.412;11.918;2023-05-10T10:03:00;16.10;99.90
43049;DHT22;28673;44.412;11.918;2023-05-10T10:05:34;16.10;99.90
43049;DHT22;28673;44.412;11.918;2023-05-10T10:08:02;16.10;99.90
43049;DHT22;28673;44.412;11.918;2023-05-10T10:10:29;16.10;99.90
43049;DHT22;28673;44.412;11.918;2023-05-10T10:12:56;16.20;99.90
43049;DHT22;28673;44.412;11.918;2023-05-10T10:15:23;16.30;99.90
43049;DHT22;28673;44.412;11.918;2023-05-10T10:17:50;16.30;99.90
43049;DHT22;28673;44.412;11.918;2023-05-10T10:20:16;16.40;99.90
43049;DHT22;28673;44.412;11.918;2023-05-10T10:22:43;16.40;99.90
43049;DHT22;28673;44.412;11.918;2023-05-10T10:25:13;16.50;99.90
43049;DHT22;28673;44.412;11.918;2023-05-10T10:36:46;16.70;99.90
43049;DHT22;28673;44.412;11.918;2023-05-10T10:39:13;16.70;99.90
43049;DHT22;28673;44.412;11.918;2023-05-10T10:42:02;16.60;99.90
43049;DHT22;28673;44.412;11.918;2023-05-10T10:52:15;16.70;99.90
43049;DHT22;28673;44.412;11.918;2023-05-10T10:55:02;16.70;99.90
43049;DHT22;28673;44.412;11.918;2023-05-10T11:00:29;16.80;99.90
43049;DHT22;28673;44.412;11.918;2023-05-10T11:03:06;16.90;99.90
43049;DHT22;28673;44.412;11.918;2023-05-10T11:05:36;16.90;99.90
43049;DHT22;28673;44.412;11.918;2023-05-10T11:08:28;16.90;99.90
43049;DHT22;28673;44.412;11.918;2023-05-10T11:13:31;17.00;99.90
43049;DHT22;28673;44.412;11.918;2023-05-10T11:15:58;17.00;99.90
43049;DHT22;28673;44.412;11.918;2023-05-10T11:18:29;17.10;99.90
43049;DHT22;28673;44.412;11.918;2023-05-10T11:21:01;17.10;99.90
43049;DHT22;28673;44.412;11.918;2023-05-10T11:26:12;17.30;99.90
43049;DHT22;28673;44.412;11.918;2023-05-10T11:28:46;17.40;99.90
43049;DHT22;28673;44.412;11.918;2023-05-10T11:31:16;17.40;99.90
43049;DHT22;28673;44.412;11.918;2023-05-10T11:33:50;17.50;99.90
43049;DHT22;28673;44.412;11.918;2023-05-10T11:36:35;17.50;99.90
43049;DHT22;28673;44.412;11.918;2023-05-10T11:39:02;17.50;99.90
43049;DHT22;28673;44.412;11.918;2023-05-10T11:41:30;17.60;99.90
43049;DHT22;28673;44.412;11.918;2023-05-10T11:43:57;17.60;99.90
43049;DHT22;28673;44.412;11.918;2023-05-10T11:46:25;17.60;99.90
43049;DHT22;28673;44.412;11.918;2023-05-10T11:49:02;17.70;99.90
43049;DHT22;28673;44.412;11.918;2023-05-10T11:51:35;17.70;99.90
43049;DHT22;28673;44.412;11.918;2023-05-10T11:54:06;17.80;99.90
43049;DHT22;28673;44.412;11.918;2023-05-10T11:56:33;17.80;99.90
43049;DHT22;28673;44.412;11.918;2023-05-10T11:58:59;17.80;99.90
43049;DHT22;28673;44.412;11.918;2023-05-10T12:01:28;17.80;99.90
43049;DHT22;28673;44.412;11.918;2023-05-10T12:03:55;17.80;99.90
43049;DHT22;28673;44.412;11.918;2023-05-10T12:06:27;17.80;99.90
43049;DHT22;28673;44.412;11.918;2023-05-10T12:08:53;17.80;99.90
43049;DHT22;28673;44.412;11.918;2023-05-10T12:11:20;17.80;99.90
43049;DHT22;28673;44.412;11.918;2023-05-10T12:13:47;17.80;99.90
43049;DHT22;28673;44.412;11.918;2023-05-10T12:18:54;17.80;99.90
43049;DHT22;28673;44.412;11.918;2023-05-10T12:21:21;17.70;99.90
43049;DHT22;28673;44.412;11.918;2023-05-10T12:23:54;17.70;99.90
43049;DHT22;28673;44.412;11.918;2023-05-10T12:26:25;17.60;99.90
43049;DHT22;28673;44.412;11.918;2023-05-10T12:28:53;17.50;99.90
43049;DHT22;28673;44.412;11.918;2023-05-10T12:31:19;17.40;99.90
43049;DHT22;28673;44.412;11.918;2023-05-10T12:33:45;17.30;99.90
43049;DHT22;28673;44.412;11.918;2023-05-10T12:36:13;17.20;99.90
43049;DHT22;28673;44.412;11.918;2023-05-10T12:38:41;17.10;99.90
43049;DHT22;28673;44.412;11.918;2023-05-10T12:41:16;16.90;99.90
43049;DHT22;28673;44.412;11.918;2023-05-10T12:43:43;16.80;99.90
43049;DHT22;28673;44.412;11.918;2023-05-10T12:46:16;16.50;99.90
43049;DHT22;28673;44.412;11.918;2023-05-10T12:48:43;16.30;99.90
43049;DHT22;28673;44.412;11.918;2023-05-10T12:51:10;16.20;99.90
43049;DHT22;28673;44.412;11.918;2023-05-10T12:53:41;16.00;99.90
43049;DHT22;28673;44.412;11.918;2023-05-10T12:56:07;15.80;99.90
43049;DHT22;28673;44.412;11.918;2023-05-10T12:58:34;15.70;99.90
43049;DHT22;28673;44.412;11.918;2023-05-10T13:01:01;15.60;99.90
43049;DHT22;28673;44.412;11.918;2023-05-10T13:03:27;15.50;99.90
43049;DHT22;28673;44.412;11.918;2023-05-10T13:05:53;15.40;99.90
43049;DHT22;28673;44.412;11.918;2023-05-10T13:08:18;15.40;99.90
43049;DHT22;28673;44.412;11.918;2023-05-10T13:10:44;15.30;99.90
43049;DHT22;28673;44.412;11.918;2023-05-10T13:13:10;15.30;99.90
43049;DHT22;28673;44.412;11.918;2023-05-10T13:15:36;15.20;99.90
43049;DHT22;28673;44.412;11.918;2023-05-10T13:18:02;15.10;99.90
43049;DHT22;28673;44.412;11.918;2023-05-10T13:20:28;15.00;99.90
43049;DHT22;28673;44.412;11.918;2023-05-10T13:22:54;15.00;99.90
43049;DHT22;28673;44.412;11.918;2023-05-10T13:25:20;14.90;99.90
43049;DHT22;28673;44.412;11.918;2023-05-10T13:27:46;14.80;99.90
43049;DHT22;28673;44.412;11.918;2023-05-10T13:30:12;14.80;99.90
43049;DHT22;28673;44.412;11.918;2023-05-10T13:32:38;14.80;99.90
43049;DHT22;28673;44.412;11.918;2023-05-10T13:35:04;14.70;99.90
43049;DHT22;28673;44.412;11.918;2023-05-10T13:37:31;14.70;99.90
43049;DHT22;28673;44.412;11.918;2023-05-10T13:39:57;14.70;99.90
43049;DHT22;28673;44.412;11.918;2023-05-10T13:42:23;14.60;99.90
43049;DHT22;28673;44.412;11.918;2023-05-10T13:44:52;14.60;99.90
43049;DHT22;28673;44.412;11.918;2023-05-10T13:47:18;14.60;99.90
43049;DHT22;28673;44.412;11.918;2023-05-10T13:49:44;14.60;99.90
43049;DHT22;28673;44.412;11.918;2023-05-10T13:52:10;14.50;99.90
43049;DHT22;28673;44.412;11.918;2023-05-10T13:54:37;14.50;99.90
43049;DHT22;28673;44.412;11.918;2023-05-10T13:57:03;14.50;99.90
43049;DHT22;28673;44.412;11.918;2023-05-10T13:59:30;14.50;99.90
43049;DHT22;28673;44.412;11.918;2023-05-10T14:01:59;14.50;99.90
43049;DHT22;28673;44.412;11.918;2023-05-10T14:04:25;14.50;99.90
43049;DHT22;28673;44.412;11.918;2023-05-10T14:06:54;14.50;99.90
43049;DHT22;28673;44.412;11.918;2023-05-10T14:09:19;14.50;99.90
43049;DHT22;28673;44.412;11.918;2023-05-10T14:11:46;14.50;99.90
43049;DHT22;28673;44.412;11.918;2023-05-10T14:14:13;14.50;99.90
43049;DHT22;28673;44.412;11.918;2023-05-10T14:16:42;14.50;99.90
43049;DHT22;28673;44.412;11.918;2023-05-10T14:19:08;14.50;99.90
43049;DHT22;28673;44.412;11.918;2023-05-10T14:21:34;14.50;99.90
43049;DHT22;28673;44.412;11.918;2023-05-10T14:24:00;14.50;99.90
43049;DHT22;28673;44.412;11.918;2023-05-10T14:26:26;14.50;99.90
43049;DHT22;28673;44.412;11.918;2023-05-10T14:28:53;14.50;99.90
43049;DHT22;28673;44.412;11.918;2023-05-10T14:31:19;14.50;99.90
43049;DHT22;28673;44.412;11.918;2023-05-10T14:33:48;14.50;99.90
43049;DHT22;28673;44.412;11.918;2023-05-10T14:36:14;14.50;99.90
43049;DHT22;28673;44.412;11.918;2023-05-10T14:38:40;14.50;99.90
43049;DHT22;28673;44.412;11.918;2023-05-10T14:41:06;14.40;99.90
43049;DHT22;28673;44.412;11.918;2023-05-10T14:43:32;14.50;99.90
43049;DHT22;28673;44.412;11.918;2023-05-10T14:45:58;14.50;99.90
43049;DHT22;28673;44.412;11.918;2023-05-10T14:48:24;14.50;99.90
43049;DHT22;28673;44.412;11.918;2023-05-10T14:50:50;14.50;99.90
43049;DHT22;28673;44.412;11.918;2023-05-10T14:53:18;14.60;99.90
43049;DHT22;28673;44.412;11.918;2023-05-10T14:55:44;14.60;99.90
43049;DHT22;28673;44.412;11.918;2023-05-10T14:58:09;14.70;99.90
43049;DHT22;28673;44.412;11.918;2023-05-10T15:00:35;14.60;99.90
43049;DHT22;28673;44.412;11.918;2023-05-10T15:03:01;14.70;99.90
43049;DHT22;28673;44.412;11.918;2023-05-10T15:05:27;14.70;99.90
43049;DHT22;28673;44.412;11.918;2023-05-10T15:07:53;14.70;99.90
43049;DHT22;28673;44.412;11.918;2023-05-10T15:10:19;14.70;99.90
43049;DHT22;28673;44.412;11.918;2023-05-10T15:12:45;14.70;99.90
43049;DHT22;28673;44.412;11.918;2023-05-10T15:15:11;14.70;99.90
43049;DHT22;28673;44.412;11.918;2023-05-10T15:17:37;14.80;99.90
43049;DHT22;28673;44.412;11.918;2023-05-10T15:20:03;14.80;99.90
43049;DHT22;28673;44.412;11.918;2023-05-10T15:22:30;14.80;99.90
43049;DHT22;28673;44.412;11.918;2023-05-10T15:24:58;14.80;99.90
43049;DHT22;28673;44.412;11.918;2023-05-10T15:27:24;14.80;99.90
43049;DHT22;28673;44.412;11.918;2023-05-10T15:29:51;14.70;99.90
43049;DHT22;28673;44.412;11.918;2023-05-10T15:32:17;14.80;99.90
43049;DHT22;28673;44.412;11.918;2023-05-10T15:34:43;14.80;99.90
43049;DHT22;28673;44.412;11.918;2023-05-10T15:37:09;14.80;99.90
43049;DHT22;28673;44.412;11.918;2023-05-10T15:39:35;14.80;99.90
43049;DHT22;28673;44.412;11.918;2023-05-10T15:42:01;14.80;99.90
43049;DHT22;28673;44.412;11.918;2023-05-10T15:44:27;14.70;99.90
43049;DHT22;28673;44.412;11.918;2023-05-10T15:46:53;14.70;99.90
43049;DHT22;28673;44.412;11.918;2023-05-10T15:49:19;14.70;99.90
43049;DHT22;28673;44.412;11.918;2023-05-10T15:51:44;14.70;99.90
43049;DHT22;28673;44.412;11.918;2023-05-10T15:54:13;14.70;99.90
43049;DHT22;28673;44.412;11.918;2023-05-10T15:56:39;14.70;99.90
43049;DHT22;28673;44.412;11.918;2023-05-10T15:59:05;14.70;99.90
43049;DHT22;28673;44.412;11.918;2023-05-10T16:01:33;14.60;99.90
43049;DHT22;28673;44.412;11.918;2023-05-10T16:03:59;14.60;99.90
43049;DHT22;28673;44.412;11.918;2023-05-10T16:06:25;14.60;99.90
43049;DHT22;28673;44.412;11.918;2023-05-10T16:08:51;14.60;99.90
43049;DHT22;28673;44.412;11.918;2023-05-10T16:11:17;14.60;99.90
43049;DHT22;28673;44.412;11.918;2023-05-10T16:13:43;14.50;99.90
43049;DHT22;28673;44.412;11.918;2023-05-10T16:16:09;14.60;99.90
43049;DHT22;28673;44.412;11.918;2023-05-10T16:18:35;14.50;99.90
43049;DHT22;28673;44.412;11.918;2023-05-10T16:21:01;14.50;99.90